• Join FlightAware (Why Join?)
  • Login
  • US Flag 
04:16PM EST


 

Airport Tracker/Info


-or-


 

Live Flight TrackerFlight Track Log ✈ N3690D ✈ 08-May-2013 ✈ KARW - KPLR

Flight Track Log - Related Links

Times and Time Zones

All times are in EDT time to prevent confusion due to time zone crossing. See the N3690D flight status page for this flight to view local times or setup timezone preferences in your user account.

Time Position Orientation Groundspeed Altitude Reporting Facility
EDT Latitude Longitude Course Direction KTS MPH feet Rate Location/Type
10:08AM 32.4519 -81.0156 278° West  Level FlightAware Approximate
10:09AM 32.4598 -81.0797 278° West  Level FlightAware Approximate
10:10AM 32.4677 -81.1437 278° West  Level FlightAware Approximate
10:11AM 32.4755 -81.2078 278° West  Level FlightAware Approximate
10:12AM 32.4833 -81.2719 278° West  Level FlightAware Approximate
10:13AM 32.4910 -81.3360 278° West  Level FlightAware Approximate
10:14AM 32.4987 -81.4001 278° West  Level FlightAware Approximate
10:15AM 32.5064 -81.4642 278° West  Level FlightAware Approximate
10:16AM 32.5141 -81.5283 278° West  Level FlightAware Approximate
10:16AM 32.5019 -81.3778 279° West 175 201 6,000  Level Jacksonville Center
10:17AM 32.5225 -81.5923 279° West  Level FlightAware Approximate
10:17AM 32.5069 -81.4392 276° West 175 201 6,000  Level Jacksonville Center
10:18AM 32.5313 -81.6563 279° West  Level FlightAware Approximate
10:18AM 32.5158 -81.4981 280° West 175 201 6,000  Level Jacksonville Center
10:19AM 32.5400 -81.7202 279° West  Level FlightAware Approximate
10:19AM 32.5206 -81.5475 276° West 175 201 6,000  Level Jacksonville Center
10:20AM 32.5487 -81.7842 279° West  Level FlightAware Approximate
10:20AM 32.5294 -81.6089 280° West 181 208 6,000  Level Jacksonville Center
10:21AM 32.5574 -81.8482 279° West  Level FlightAware Approximate
10:21AM 32.5322 -81.6656 273° West 176 203 6,000  Level Jacksonville Center
10:22AM 32.5222 -81.7147 256° West 176 203 6,000  Level Jacksonville Center
10:23AM 32.5103 -81.7767 257° West 181 208 6,000  Level Jacksonville Center
10:25AM 32.4975 -81.8617 260° West 176 203 6,000  Level Atlanta Center
10:26AM 32.4881 -81.9161 258° West 176 203 6,000  Level Atlanta Center
10:27AM 32.4786 -81.9731 259° West 181 208 6,000  Level Atlanta Center
10:28AM 32.4669 -82.0300 256° West 181 208 6,000  Level Atlanta Center
10:29AM 32.4575 -82.0892 259° West 181 208 6,000  Level Atlanta Center
10:30AM 32.4500 -82.1461 261° West 181 208 6,000  Level Atlanta Center
10:31AM 32.4675 -82.1972 292° West 176 203 6,000  Level Atlanta Center
10:32AM 32.4789 -82.2536 283° West 176 203 6,000  Level Atlanta Center
10:33AM 32.4900 -82.3028 285° West 176 203 6,000  Level Atlanta Center
10:34AM 32.4928 -82.3594 273° West 183 211 6,000  Level Atlanta Center
10:35AM 32.5019 -82.4133 281° West 178 205 6,000  Level Atlanta Center
10:36AM 32.5089 -82.4722 278° West 178 205 6,000  Level Atlanta Center
10:37AM 32.5181 -82.5264 281° West 178 205 6,000  Level Atlanta Center
10:38AM 32.5269 -82.5828 281° West 178 205 6,000  Level Atlanta Center
10:39AM 32.5339 -82.6394 278° West 183 211 6,000  Level Atlanta Center
10:40AM 32.5428 -82.6958 281° West 176 203 6,000  Level Atlanta Center
10:41AM 32.5517 -82.7500 281° West 176 203 6,000  Level Atlanta Center
10:42AM 32.5586 -82.8067 278° West 181 208 6,000  Level Atlanta Center
10:43AM 32.5697 -82.8631 283° West 181 208 6,000  Level Atlanta Center
10:44AM 32.5825 -82.9147 286° West 181 208 6,000  Level Atlanta Center
10:45AM 32.5936 -82.9764 282° West 187 215 6,000  Level Atlanta Center
10:46AM 32.6044 -83.0278 284° West 180 207 6,000  Level Atlanta Center
10:48AM 32.6333 -83.1500 286° West 175 201 6,000  Level Atlanta TRACON
10:49AM 32.6500 -83.2000 292° West 177 204 6,000  Level Atlanta TRACON
10:50AM 32.6500 -83.2667 270° West 177 204 6,000  Level Atlanta TRACON
10:52AM 32.6833 -83.3667 292° West 180 207 6,000  Level Atlanta TRACON
10:53AM 32.6833 -83.4333 270° West 177 204 6,000  Level Atlanta TRACON
10:54AM 32.7000 -83.4833 292° West 174 200 6,000  Level Atlanta TRACON
10:55AM 32.7167 -83.5500 287° West 173 199 6,000  Level Atlanta TRACON
10:56AM 32.7167 -83.6000 270° West 176 203 6,000  Level Atlanta TRACON
10:57AM 32.7333 -83.6500 292° West 174 200 6,000  Level Atlanta TRACON
10:58AM 32.7500 -83.7000 292° West 175 201 6,000  Level Atlanta TRACON
10:59AM 32.7667 -83.7500 292° West 174 200 6,000  Level Atlanta TRACON
11:00AM 32.7667 -83.8167 270° West 176 203 6,000 -60 Level Atlanta TRACON
11:01AM 32.7833 -83.8667 292° West 176 203 5,900  Descending Atlanta TRACON
11:02AM 32.8000 -83.9333 287° West 176 203 6,000  Climbing Atlanta TRACON
11:03AM 32.8000 -83.9833 270° West 177 204 6,000  Level Atlanta TRACON
11:04AM 32.8167 -84.0500 287° West 176 203 6,000 -60 Level Atlanta TRACON
11:05AM 32.8333 -84.1000 292° West 177 204 5,900 -60 Descending Atlanta TRACON
11:06AM 32.8333 -84.1667 270° West 177 204 5,900  Level Atlanta TRACON
11:07AM 32.8500 -84.2167 292° West 176 203 5,900  Level Atlanta TRACON
11:08AM 32.8667 -84.2667 292° West 176 203 5,900  Level Atlanta TRACON
11:09AM 32.8833 -84.3333 287° West 175 201 6,000  Climbing Atlanta TRACON
11:10AM 32.8833 -84.3833 270° West 180 207 6,000  Level Atlanta TRACON
11:11AM 32.9000 -84.4333 292° West 175 201 6,000  Level Atlanta TRACON
11:12AM 32.9167 -84.5000 287° West 179 206 6,000  Level Atlanta TRACON
11:13AM 32.9167 -84.5667 270° West 177 204 6,000  Level Atlanta TRACON
11:14AM 32.9333 -84.6167 292° West 178 205 6,000  Level Atlanta TRACON
11:15AM 32.9500 -84.6667 292° West 181 208 6,000  Level Atlanta TRACON
11:16AM 32.9500 -84.7333 270° West 180 207 6,000  Level Atlanta TRACON
11:17AM 32.9667 -84.7833 292° West 179 206 6,000  Level Atlanta TRACON
11:18AM 32.9833 -84.8333 292° West 177 204 6,000  Level Atlanta TRACON
11:19AM 32.9856 -84.8833 273° West 190 219 6,000  Level Atlanta Center
11:20AM 32.9978 -84.9403 284° West 184 212 6,000  Level Atlanta Center
11:21AM 33.0119 -85.0050 285° West 179 206 6,000  Level Atlanta Center
11:22AM 33.0219 -85.0594 282° West 179 206 6,000  Level Atlanta Center
11:23AM 33.0319 -85.1167 282° West 179 206 6,000  Level Atlanta Center
11:24AM 33.0439 -85.1714 285° West 184 212 6,000 -60 Level Atlanta Center
11:25AM 33.0600 -85.2311 288° West 184 212 5,900 -60 Descending Atlanta Center
11:26AM 33.0867 -85.2761 305° West 178 205 5,900  Level Atlanta Center
11:27AM 33.1133 -85.3261 302° West 178 205 5,900  Level Atlanta Center
11:28AM 33.1358 -85.3783 297° West 178 205 5,900  Level Atlanta Center
11:29AM 33.1583 -85.4233 301° West 178 205 5,900  Level Atlanta Center
11:30AM 33.1828 -85.4733 300° West 171 197 6,000  Climbing Atlanta Center
11:31AM 33.2072 -85.5261 299° West 171 197 6,000  Level Atlanta Center
11:32AM 33.2294 -85.5736 299° West 171 197 6,000  Level Atlanta Center
11:33AM 33.2558 -85.6261 301° West 176 203 6,000  Level Atlanta Center
11:34AM 33.2803 -85.6739 301° West 176 203 6,000  Level Atlanta Center
11:34AM 33.2925 -85.7064 294° West 174 200 6,000  Level Atlanta Center
11:35AM 33.3028 -85.7214 309° West 176 203 6,000 -240 Level Atlanta Center
11:35AM 33.3128 -85.7464 296° West 173 199 5,800 -600 Descending Atlanta Center
11:36AM 33.3292 -85.7767 303° West 185 213 5,400 -720 Descending Atlanta Center
11:36AM 33.3411 -85.8067 295° West 175 201 5,100 -540 Descending Atlanta Center
11:37AM 33.3556 -85.8269 310° West 185 213 4,900 -960 Descending Atlanta Center
11:37AM 33.3697 -85.8594 298° West 182 209 4,100 -840 Descending Atlanta Center
11:38AM 33.3819 -85.8822 303° West 185 213 4,100  Level Atlanta Center
11:39AM 33.4039 -85.9325 298° West 185 213 4,100  Level Atlanta Center
11:40AM 33.4303 -85.9903 299° West 185 213 4,100  Level Atlanta Center
11:41AM 33.4544 -86.0456 298° West 185 213 4,100  Level Atlanta Center
11:42AM 33.4606 -86.0583 300° West 185 213 4,100  Level Atlanta Center
11:44AM 33.4606 -86.0583 212° Southwest 185 213 4,100  Level Atlanta Center
11:46AM 33.5018 -86.1502 298° West  Level FlightAware Approximate
11:53AM 33.5500 -86.2333 309° West  Level FlightAware Approximate
11:54AM 33.5588 -86.2491 309° West  Level Estimated
11:55AM 33.5588 -86.2491 309° West  Level Estimated
11:56AM 33.5588 -86.2491 309° West  Level Estimated